createdAt,value
2018-05-31T00:00:50.390Z,3.40
2018-05-31T00:03:18.045Z,3.20
2018-05-31T00:05:45.607Z,2.93
2018-05-31T00:08:13.224Z,3.30
2018-05-31T00:10:40.750Z,3.50
2018-05-31T00:13:08.262Z,3.13
2018-05-31T00:15:35.784Z,3.13
2018-05-31T00:18:03.313Z,3.17
2018-05-31T00:20:30.844Z,3.27
2018-05-31T00:22:58.375Z,3.30
2018-05-31T00:25:25.887Z,3.77
2018-05-31T00:27:53.417Z,3.23
2018-05-31T00:30:20.933Z,3.57
2018-05-31T00:32:48.439Z,3.90
2018-05-31T00:35:15.949Z,3.63
2018-05-31T00:37:43.484Z,3.43
2018-05-31T00:40:10.998Z,3.60
2018-05-31T00:42:38.527Z,3.40
2018-05-31T00:45:06.055Z,3.47
2018-05-31T00:47:33.589Z,3.30
2018-05-31T00:50:01.133Z,3.57
2018-05-31T00:52:28.645Z,3.20
2018-05-31T00:54:56.155Z,3.40
2018-05-31T00:57:23.710Z,2.87
2018-05-31T00:59:51.219Z,3.33
2018-05-31T01:02:18.739Z,3.00
2018-05-31T01:04:46.249Z,3.07
2018-05-31T01:07:13.780Z,3.33
2018-05-31T01:09:41.317Z,3.70
2018-05-31T01:12:08.828Z,3.07
2018-05-31T01:14:36.368Z,3.20
2018-05-31T01:17:03.915Z,3.30
2018-05-31T01:19:31.434Z,3.97
2018-05-31T01:21:58.950Z,3.80
2018-05-31T01:24:26.477Z,4.23
2018-05-31T01:26:54.017Z,3.87
2018-05-31T01:29:21.541Z,4.50
2018-05-31T01:31:49.060Z,3.60
2018-05-31T01:34:16.585Z,4.03
2018-05-31T01:36:44.083Z,3.20
2018-05-31T01:39:17.548Z,4.23
2018-05-31T01:41:45.057Z,4.70
2018-05-31T01:44:12.579Z,4.37
2018-05-31T01:46:40.113Z,4.00
2018-05-31T01:49:07.633Z,4.33
2018-05-31T01:51:35.227Z,4.40
2018-05-31T01:54:02.761Z,4.67
2018-05-31T01:56:30.283Z,4.53
2018-05-31T01:58:57.801Z,5.00
2018-05-31T02:01:25.322Z,5.17
2018-05-31T02:03:52.821Z,4.50
2018-05-31T02:06:20.345Z,4.93
2018-05-31T02:08:47.858Z,5.00
2018-05-31T02:11:15.391Z,4.90
2018-05-31T02:13:42.959Z,4.73
2018-05-31T02:16:10.526Z,4.97
2018-05-31T02:18:38.049Z,5.10
2018-05-31T02:21:05.563Z,4.60
2018-05-31T02:23:33.086Z,5.17
2018-05-31T02:26:00.613Z,4.80
2018-05-31T02:28:28.127Z,5.30
2018-05-31T02:30:55.661Z,5.43
2018-05-31T02:33:23.187Z,4.73
2018-05-31T02:35:50.721Z,4.93
2018-05-31T02:38:18.304Z,4.73
2018-05-31T02:40:45.927Z,5.00
2018-05-31T02:43:14.395Z,5.60
2018-05-31T02:45:41.919Z,4.97
2018-05-31T02:48:09.444Z,4.97
2018-05-31T02:50:36.951Z,4.83
2018-05-31T02:53:04.556Z,5.10
2018-05-31T02:55:32.095Z,4.50
2018-05-31T02:57:59.623Z,4.77
2018-05-31T03:00:27.191Z,5.20
2018-05-31T03:02:54.763Z,5.27
2018-05-31T03:05:22.313Z,4.73
2018-05-31T03:07:49.834Z,5.30
2018-05-31T03:10:17.359Z,5.27
2018-05-31T03:12:44.869Z,5.00
2018-05-31T03:15:12.453Z,5.53
2018-05-31T03:17:39.960Z,5.23
2018-05-31T03:20:07.484Z,5.03
2018-05-31T03:22:35.002Z,4.80
2018-05-31T03:25:02.518Z,14.13
2018-05-31T03:27:30.040Z,11.13
2018-05-31T03:29:57.573Z,5.00
2018-05-31T03:32:25.155Z,4.63
2018-05-31T03:34:52.670Z,4.63
2018-05-31T03:37:20.190Z,5.33
2018-05-31T03:39:47.720Z,4.90
2018-05-31T03:42:15.262Z,5.30
2018-05-31T03:44:42.792Z,5.40
2018-05-31T03:47:11.509Z,4.90
2018-05-31T03:49:39.059Z,4.60
2018-05-31T03:52:06.582Z,5.30
2018-05-31T03:54:34.108Z,5.57
2018-05-31T03:57:01.634Z,6.23
2018-05-31T03:59:29.200Z,6.37
2018-05-31T04:01:56.727Z,5.47
2018-05-31T04:04:24.294Z,7.10
2018-05-31T04:06:51.817Z,6.73
2018-05-31T04:09:19.325Z,6.57
2018-05-31T04:11:46.871Z,6.93
2018-05-31T04:14:14.402Z,7.03
2018-05-31T04:16:41.956Z,7.43
2018-05-31T04:19:09.486Z,7.70
2018-05-31T04:21:37.024Z,8.03
2018-05-31T04:24:04.583Z,9.70
2018-05-31T04:26:32.115Z,9.77
2018-05-31T04:28:59.701Z,10.80
2018-05-31T04:31:27.185Z,9.63
2018-05-31T04:33:54.715Z,9.77
2018-05-31T04:36:22.238Z,8.47
2018-05-31T04:38:49.796Z,8.37
2018-05-31T04:41:17.388Z,7.00
2018-05-31T04:43:44.915Z,7.30
2018-05-31T04:46:12.479Z,7.00
2018-05-31T04:48:40.025Z,6.07
2018-05-31T04:51:07.556Z,6.40
2018-05-31T04:53:35.414Z,7.00
2018-05-31T04:56:02.947Z,7.27
2018-05-31T04:58:30.500Z,6.40
2018-05-31T05:00:58.080Z,6.10
2018-05-31T05:03:25.688Z,7.57
2018-05-31T05:05:53.215Z,6.57
2018-05-31T05:08:20.760Z,6.87
2018-05-31T05:10:48.287Z,6.53
2018-05-31T05:13:15.832Z,7.30
2018-05-31T05:15:43.359Z,6.30
2018-05-31T05:18:10.907Z,6.63
2018-05-31T05:20:38.453Z,6.63
2018-05-31T05:23:06.000Z,6.77
2018-05-31T05:25:33.535Z,6.73
2018-05-31T05:28:01.068Z,6.77
2018-05-31T05:30:28.608Z,7.37
2018-05-31T05:32:56.132Z,6.50
2018-05-31T05:35:23.687Z,6.47
2018-05-31T05:37:51.213Z,7.00
2018-05-31T05:40:18.736Z,6.80
2018-05-31T05:42:46.255Z,6.87
2018-05-31T05:45:13.783Z,6.63
2018-05-31T05:47:41.399Z,6.77
2018-05-31T05:50:08.955Z,6.30
2018-05-31T05:52:36.477Z,6.40
2018-05-31T05:55:04.014Z,6.67
2018-05-31T05:57:31.618Z,6.23
2018-05-31T05:59:59.146Z,6.37
2018-05-31T06:02:26.757Z,7.97
2018-05-31T06:04:54.272Z,6.20
2018-05-31T06:07:21.788Z,6.40
2018-05-31T06:09:49.331Z,6.33
2018-05-31T06:12:16.895Z,5.50
2018-05-31T06:14:44.468Z,6.73
2018-05-31T06:17:11.992Z,6.40
2018-05-31T06:19:39.646Z,5.80
2018-05-31T06:22:07.192Z,6.83
2018-05-31T06:24:34.760Z,6.03
2018-05-31T06:27:02.602Z,5.60
2018-05-31T06:29:30.167Z,9.40
2018-05-31T06:31:57.793Z,5.93
2018-05-31T06:34:25.354Z,6.63
2018-05-31T06:36:52.867Z,5.20
2018-05-31T06:39:20.370Z,6.10
2018-05-31T06:41:47.925Z,6.00
2018-05-31T06:44:15.453Z,5.20
2018-05-31T06:46:42.950Z,5.13
2018-05-31T06:49:10.484Z,5.17
2018-05-31T06:51:38.045Z,4.80
2018-05-31T06:54:05.580Z,4.63
2018-05-31T06:56:33.076Z,3.53
2018-05-31T06:59:00.604Z,4.10
2018-05-31T07:01:28.151Z,4.20
2018-05-31T07:03:55.649Z,3.83
2018-05-31T07:06:23.167Z,4.30
2018-05-31T07:08:50.690Z,4.13
2018-05-31T07:11:18.197Z,4.10
2018-05-31T07:13:45.708Z,3.77
2018-05-31T07:16:13.263Z,3.57
2018-05-31T07:18:40.814Z,4.10
2018-05-31T07:21:08.379Z,5.20
2018-05-31T07:23:35.972Z,4.73
2018-05-31T07:26:03.495Z,4.77
2018-05-31T07:28:31.056Z,4.00
2018-05-31T07:30:58.611Z,4.03
2018-05-31T07:33:26.191Z,4.03
2018-05-31T07:35:53.687Z,4.10
2018-05-31T07:38:21.217Z,3.97
2018-05-31T07:40:48.772Z,3.53
2018-05-31T07:43:16.369Z,3.50
2018-05-31T07:45:43.937Z,3.80
2018-05-31T07:48:11.447Z,4.07
2018-05-31T07:50:38.997Z,3.50
2018-05-31T07:53:06.595Z,3.90
2018-05-31T07:55:34.137Z,3.10
2018-05-31T07:58:01.767Z,3.20
2018-05-31T08:00:31.139Z,3.50
2018-05-31T08:02:58.666Z,3.00
2018-05-31T08:05:26.305Z,3.10
2018-05-31T08:07:53.862Z,2.70
2018-05-31T08:10:21.430Z,2.60
2018-05-31T08:12:48.963Z,2.77
2018-05-31T08:15:16.463Z,2.93
2018-05-31T08:17:44.758Z,2.43
2018-05-31T08:20:12.300Z,3.10
2018-05-31T08:22:39.835Z,2.60
2018-05-31T08:25:07.418Z,3.00
2018-05-31T08:27:34.929Z,3.07
2018-05-31T08:30:02.450Z,2.73
2018-05-31T08:32:29.976Z,3.30
2018-05-31T08:34:57.682Z,3.17
2018-05-31T08:37:25.246Z,3.13
2018-05-31T08:39:52.861Z,2.60
2018-05-31T08:42:20.358Z,2.70
2018-05-31T08:44:47.874Z,3.40
2018-05-31T08:47:15.409Z,2.67
2018-05-31T08:49:42.902Z,2.40
2018-05-31T08:52:10.436Z,12.07
2018-05-31T08:54:37.949Z,2.43
2018-05-31T08:57:05.444Z,3.17
2018-05-31T08:59:32.944Z,2.10
2018-05-31T09:02:00.464Z,2.60
2018-05-31T09:04:27.996Z,2.70
2018-05-31T09:06:55.496Z,2.20
2018-05-31T09:09:23.013Z,1.90
2018-05-31T09:11:50.534Z,1.90
2018-05-31T09:14:18.040Z,2.20
2018-05-31T09:16:45.539Z,2.00
2018-05-31T09:19:13.051Z,1.80
2018-05-31T09:21:40.543Z,1.90
2018-05-31T09:24:08.032Z,1.70
2018-05-31T09:26:35.549Z,1.83
2018-05-31T09:29:03.087Z,2.20
2018-05-31T09:31:30.664Z,1.93
2018-05-31T09:33:58.160Z,1.83
2018-05-31T09:36:25.731Z,2.10
2018-05-31T09:38:53.279Z,2.47
2018-05-31T09:41:21.393Z,2.00
2018-05-31T09:43:48.932Z,1.70
2018-05-31T09:46:16.508Z,2.00
2018-05-31T09:48:44.956Z,1.77
2018-05-31T09:51:12.459Z,2.23
2018-05-31T09:53:39.971Z,2.00
2018-05-31T09:56:07.492Z,1.80
2018-05-31T09:58:35.025Z,2.17
2018-05-31T10:01:02.526Z,2.10
2018-05-31T10:03:30.026Z,2.00
2018-05-31T10:05:57.584Z,2.00
2018-05-31T10:08:25.102Z,1.87
2018-05-31T10:10:52.625Z,1.83
2018-05-31T10:13:20.185Z,1.90
2018-05-31T10:15:47.679Z,1.90
2018-05-31T10:18:15.198Z,1.73
2018-05-31T10:20:42.739Z,1.45
2018-05-31T10:23:10.253Z,1.60
2018-05-31T10:25:37.761Z,2.25
2018-05-31T10:28:05.331Z,1.60
2018-05-31T10:30:32.872Z,1.75
2018-05-31T10:33:00.384Z,1.92
2018-05-31T10:35:27.896Z,1.85
2018-05-31T10:37:55.437Z,2.50
2018-05-31T10:40:22.953Z,1.65
2018-05-31T10:42:50.477Z,1.90
2018-05-31T10:45:18.003Z,1.95
2018-05-31T10:47:45.543Z,2.10
2018-05-31T10:50:13.051Z,2.53
2018-05-31T10:52:40.563Z,1.73
2018-05-31T10:55:08.091Z,2.80
2018-05-31T10:57:35.612Z,2.00
2018-05-31T11:00:04.419Z,1.80
2018-05-31T11:02:31.938Z,1.87
2018-05-31T11:04:59.450Z,1.80
2018-05-31T11:07:26.965Z,1.90
2018-05-31T11:09:54.471Z,1.95
2018-05-31T11:12:21.997Z,1.85
2018-05-31T11:14:49.509Z,2.00
2018-05-31T11:17:17.032Z,1.80
2018-05-31T11:19:44.554Z,2.20
2018-05-31T11:22:12.059Z,1.98
2018-05-31T11:24:39.579Z,2.10
2018-05-31T11:27:07.119Z,1.60
2018-05-31T11:29:34.637Z,4.05
2018-05-31T11:32:02.735Z,2.25
2018-05-31T11:34:30.248Z,2.03
2018-05-31T11:36:57.750Z,1.95
2018-05-31T11:39:25.251Z,2.03
2018-05-31T11:41:53.655Z,2.05
2018-05-31T11:44:21.210Z,2.90
2018-05-31T11:46:48.729Z,2.30
2018-05-31T11:49:16.305Z,2.45
2018-05-31T11:51:44.525Z,2.10
2018-05-31T11:54:12.034Z,2.00
2018-05-31T11:56:39.549Z,2.22
2018-05-31T11:59:07.096Z,2.62
2018-05-31T12:01:34.623Z,2.30
2018-05-31T12:04:02.127Z,2.92
2018-05-31T12:06:29.644Z,3.25
2018-05-31T12:08:57.164Z,2.47
2018-05-31T12:11:24.701Z,2.25
2018-05-31T12:13:52.236Z,2.20
2018-05-31T12:16:19.797Z,2.45
2018-05-31T12:18:47.302Z,2.42
2018-05-31T12:21:14.815Z,2.17
2018-05-31T12:23:42.342Z,2.35
2018-05-31T12:26:09.840Z,2.05
2018-05-31T12:28:37.348Z,1.90
2018-05-31T12:31:04.912Z,2.45
2018-05-31T12:33:32.434Z,2.12
2018-05-31T12:35:59.931Z,2.00
2018-05-31T12:38:27.438Z,2.47
2018-05-31T12:40:54.939Z,2.12
2018-05-31T12:43:22.444Z,3.47
2018-05-31T12:45:49.937Z,3.65
2018-05-31T12:48:17.476Z,2.50
2018-05-31T12:50:45.049Z,2.92
2018-05-31T12:53:12.565Z,2.80
2018-05-31T12:55:40.088Z,2.55
2018-05-31T12:58:07.671Z,3.15
2018-05-31T13:00:35.174Z,2.80
2018-05-31T13:03:02.665Z,2.60
2018-05-31T13:05:30.200Z,2.00
2018-05-31T13:07:57.719Z,2.10
2018-05-31T13:10:25.352Z,2.15
2018-05-31T13:12:52.899Z,2.40
2018-05-31T13:15:20.518Z,2.92
2018-05-31T13:17:48.053Z,2.37
2018-05-31T13:20:15.592Z,2.28
2018-05-31T13:22:44.004Z,2.28
2018-05-31T13:25:11.558Z,1.98
2018-05-31T13:27:39.151Z,2.25
2018-05-31T13:30:06.704Z,3.60
2018-05-31T13:32:34.259Z,2.33
2018-05-31T13:35:01.797Z,2.05
2018-05-31T13:37:29.309Z,2.67
2018-05-31T13:39:56.871Z,2.40
2018-05-31T13:42:24.427Z,2.00
2018-05-31T13:44:51.962Z,2.22
2018-05-31T13:47:19.509Z,2.20
2018-05-31T13:49:59.992Z,2.03
2018-05-31T13:52:27.980Z,2.42
2018-05-31T13:54:55.480Z,2.05
2018-05-31T13:57:22.997Z,2.15
2018-05-31T13:59:50.543Z,2.10
2018-05-31T14:02:18.099Z,2.30
2018-05-31T14:04:45.623Z,2.17
2018-05-31T14:07:13.168Z,1.60
2018-05-31T14:09:40.683Z,2.10
2018-05-31T14:12:08.204Z,2.33
2018-05-31T14:14:35.740Z,1.90
2018-05-31T14:17:03.239Z,1.50
2018-05-31T14:19:30.796Z,1.80
2018-05-31T14:21:58.313Z,1.80
2018-05-31T14:24:25.838Z,1.70
2018-05-31T14:26:53.345Z,2.00
2018-05-31T14:29:20.851Z,1.83
2018-05-31T14:31:48.363Z,2.10
2018-05-31T14:34:15.884Z,2.10
2018-05-31T14:36:43.399Z,2.25
2018-05-31T14:39:10.913Z,2.30
2018-05-31T14:41:38.426Z,2.17
2018-05-31T14:44:05.946Z,1.98
2018-05-31T14:46:33.474Z,2.22
2018-05-31T14:49:00.988Z,2.15
2018-05-31T14:51:28.570Z,1.75
2018-05-31T14:53:56.088Z,1.45
2018-05-31T14:56:23.591Z,1.60
2018-05-31T14:58:51.119Z,1.62
2018-05-31T15:01:18.624Z,1.52
2018-05-31T15:03:46.131Z,1.77
2018-05-31T15:06:13.626Z,1.80
2018-05-31T15:08:41.992Z,1.98
2018-05-31T15:11:09.555Z,1.67
2018-05-31T15:13:37.079Z,1.83
2018-05-31T15:16:04.603Z,1.52
2018-05-31T15:18:32.127Z,1.90
2018-05-31T15:20:59.680Z,1.83
2018-05-31T15:23:27.212Z,1.67
2018-05-31T15:25:54.760Z,1.60
2018-05-31T15:28:22.288Z,1.70
2018-05-31T15:30:49.827Z,1.75
2018-05-31T15:33:17.368Z,1.73
2018-05-31T15:35:44.932Z,1.40
2018-05-31T15:38:12.531Z,1.67
2018-05-31T15:40:40.039Z,1.50
2018-05-31T15:43:07.577Z,1.50
2018-05-31T15:45:35.088Z,1.58
2018-05-31T15:48:02.612Z,1.52
2018-05-31T15:50:30.131Z,1.87
2018-05-31T15:52:57.641Z,1.37
2018-05-31T15:55:25.144Z,1.60
2018-05-31T15:57:52.640Z,1.30
2018-05-31T16:00:20.208Z,1.70
2018-05-31T16:02:47.740Z,1.50
2018-05-31T16:05:15.248Z,1.75
2018-05-31T16:07:42.809Z,1.75
2018-05-31T16:10:11.173Z,2.20
2018-05-31T16:12:38.695Z,2.00
2018-05-31T16:15:06.198Z,2.17
2018-05-31T16:17:33.748Z,2.10
2018-05-31T16:20:01.322Z,1.90
2018-05-31T16:22:28.856Z,1.77
2018-05-31T16:24:56.373Z,1.42
2018-05-31T16:27:23.949Z,1.80
2018-05-31T16:29:52.220Z,1.87
2018-05-31T16:32:19.844Z,1.70
2018-05-31T16:34:47.360Z,1.65
2018-05-31T16:37:14.863Z,1.95
2018-05-31T16:39:42.398Z,2.00
2018-05-31T16:42:10.202Z,2.25
2018-05-31T16:44:37.735Z,2.45
2018-05-31T16:47:05.258Z,1.80
2018-05-31T16:49:32.818Z,2.30
2018-05-31T16:52:00.349Z,2.17
2018-05-31T16:54:27.865Z,2.60
2018-05-31T16:56:55.379Z,2.65
2018-05-31T16:59:22.884Z,2.10
2018-05-31T17:01:50.422Z,2.40
2018-05-31T17:04:17.939Z,2.10
2018-05-31T17:06:45.478Z,2.12
2018-05-31T17:09:12.998Z,2.30
2018-05-31T17:11:40.500Z,2.37
2018-05-31T17:14:08.007Z,2.20
2018-05-31T17:16:35.515Z,2.30
2018-05-31T17:19:03.120Z,2.10
2018-05-31T17:21:30.652Z,2.10
2018-05-31T17:23:58.188Z,2.33
2018-05-31T17:26:25.718Z,2.10
2018-05-31T17:28:53.225Z,2.90
2018-05-31T17:31:20.734Z,2.42
2018-05-31T17:33:48.270Z,1.90
2018-05-31T17:36:16.348Z,2.53
2018-05-31T17:38:43.914Z,2.03
2018-05-31T17:41:11.418Z,3.87
2018-05-31T17:43:38.926Z,2.60
2018-05-31T17:46:06.631Z,2.28
2018-05-31T17:48:35.142Z,2.37
2018-05-31T17:51:02.645Z,2.50
2018-05-31T17:53:30.252Z,2.80
2018-05-31T17:55:57.773Z,2.70
2018-05-31T17:58:25.276Z,2.63
2018-05-31T18:00:55.954Z,2.37
2018-05-31T18:03:23.501Z,2.40
2018-05-31T18:05:51.029Z,2.67
2018-05-31T18:08:18.540Z,2.53
2018-05-31T18:10:46.051Z,2.53
2018-05-31T18:13:13.572Z,2.70
2018-05-31T18:15:41.091Z,2.70
2018-05-31T18:18:08.676Z,2.70
2018-05-31T18:20:36.196Z,2.70
2018-05-31T18:23:03.794Z,3.20
2018-05-31T18:25:31.293Z,3.00
2018-05-31T18:27:58.839Z,3.13
2018-05-31T18:30:26.367Z,3.40
2018-05-31T18:32:53.899Z,4.47
2018-05-31T18:35:21.453Z,4.40
2018-05-31T18:37:48.959Z,5.33
2018-05-31T18:40:17.688Z,4.67
2018-05-31T18:42:45.222Z,5.00
2018-05-31T18:45:12.739Z,5.10
2018-05-31T18:47:40.310Z,10.50
2018-05-31T18:50:07.827Z,10.43
2018-05-31T18:52:35.340Z,5.17
2018-05-31T18:55:02.960Z,5.80
2018-05-31T18:57:30.588Z,5.40
2018-05-31T18:59:58.114Z,5.23
2018-05-31T19:02:25.643Z,6.40
2018-05-31T19:04:53.201Z,6.70
2018-05-31T19:07:20.739Z,8.67
2018-05-31T19:09:48.283Z,9.37
2018-05-31T19:12:15.875Z,7.70
2018-05-31T19:14:43.468Z,5.90
2018-05-31T19:17:10.995Z,5.60
2018-05-31T19:19:44.176Z,5.50
2018-05-31T19:22:11.688Z,5.67
2018-05-31T19:24:44.992Z,5.43
2018-05-31T19:27:12.543Z,4.70
2018-05-31T19:29:40.054Z,5.73
2018-05-31T19:32:07.567Z,5.50
2018-05-31T19:34:35.234Z,5.30
2018-05-31T19:37:08.182Z,5.63
2018-05-31T19:39:36.664Z,5.97
2018-05-31T19:42:04.298Z,12.37
2018-05-31T19:44:38.343Z,8.20
2018-05-31T19:47:05.861Z,6.90
2018-05-31T19:49:33.423Z,6.73
2018-05-31T19:52:08.671Z,6.60
2018-05-31T19:54:36.184Z,6.10
2018-05-31T19:57:03.718Z,5.90
2018-05-31T20:02:41.402Z,4.80
2018-05-31T20:05:10.119Z,5.53
2018-05-31T20:07:37.654Z,5.23
2018-05-31T20:10:05.241Z,4.73
2018-05-31T20:12:32.799Z,4.47
2018-05-31T20:15:00.325Z,4.83
2018-05-31T20:17:27.865Z,5.43
2018-05-31T20:19:55.424Z,4.90
2018-05-31T20:22:22.951Z,7.50
2018-05-31T20:24:50.473Z,5.47
2018-05-31T20:27:18.019Z,4.50
2018-05-31T20:29:45.660Z,6.57
2018-05-31T20:32:13.204Z,4.80
2018-05-31T20:34:40.782Z,4.90
2018-05-31T20:37:08.328Z,4.27
2018-05-31T20:39:35.954Z,4.57
2018-05-31T20:42:03.721Z,3.97
2018-05-31T20:44:31.283Z,3.63
2018-05-31T20:46:58.800Z,3.90
2018-05-31T20:49:26.303Z,3.40
2018-05-31T20:51:53.843Z,3.40
2018-05-31T20:54:21.422Z,3.67
2018-05-31T20:56:48.915Z,3.43
2018-05-31T20:59:16.478Z,3.17
2018-05-31T21:01:43.994Z,3.17
2018-05-31T21:04:11.495Z,3.43
2018-05-31T21:06:39.760Z,2.73
2018-05-31T21:09:07.265Z,3.07
2018-05-31T21:11:35.025Z,3.20
2018-05-31T21:14:02.521Z,3.20
2018-05-31T21:16:30.043Z,3.53
2018-05-31T21:18:57.563Z,3.13
2018-05-31T21:21:25.076Z,3.03
2018-05-31T21:23:52.583Z,3.03
2018-05-31T21:26:20.097Z,3.17
2018-05-31T21:28:47.630Z,3.30
2018-05-31T21:31:15.161Z,3.33
2018-05-31T21:33:42.740Z,2.90
2018-05-31T21:36:10.341Z,3.47
2018-05-31T21:38:37.933Z,3.07
2018-05-31T21:41:05.500Z,3.27
2018-05-31T21:43:33.003Z,4.00
2018-05-31T21:46:00.542Z,3.57
2018-05-31T21:48:28.477Z,4.00
2018-05-31T21:50:56.023Z,3.60
2018-05-31T21:53:23.536Z,3.50
2018-05-31T21:55:51.102Z,3.87
2018-05-31T21:58:18.656Z,3.93
2018-05-31T22:00:51.760Z,3.53
2018-05-31T22:03:19.304Z,3.70
2018-05-31T22:05:46.821Z,3.60
2018-05-31T22:08:14.339Z,3.53
2018-05-31T22:10:41.906Z,3.80
2018-05-31T22:13:09.407Z,3.40
2018-05-31T22:15:36.919Z,3.33
2018-05-31T22:18:04.444Z,3.03
2018-05-31T22:20:31.967Z,3.07
2018-05-31T22:22:59.542Z,3.77
2018-05-31T22:25:27.075Z,4.13
2018-05-31T22:27:54.578Z,4.13
2018-05-31T22:30:22.159Z,5.00
2018-05-31T22:32:49.690Z,6.00
2018-05-31T22:35:17.215Z,5.87
2018-05-31T22:37:44.767Z,5.60
2018-05-31T22:40:12.288Z,5.53
2018-05-31T22:42:39.810Z,4.80
2018-05-31T22:45:07.344Z,5.13
2018-05-31T22:47:34.953Z,4.77
2018-05-31T22:50:02.494Z,6.33
2018-05-31T22:52:30.020Z,6.47
2018-05-31T22:54:57.543Z,8.47
2018-05-31T22:57:25.116Z,10.43
2018-05-31T22:59:52.632Z,8.63
2018-05-31T23:02:20.173Z,6.57
2018-05-31T23:04:47.708Z,6.07
2018-05-31T23:07:15.251Z,5.80
2018-05-31T23:09:42.782Z,5.57
2018-05-31T23:12:10.298Z,5.23
2018-05-31T23:14:37.825Z,5.00
2018-05-31T23:17:05.340Z,4.77
